PWSweather.com
Personal Weather Stations
Station Observations
STEFBZH56
PontScorff, PontScorffFR

PontScorffPontScorffFR

Lat: 47.831518, Lon: -3.4222200000000385

Elevation: 141

Station Type: Oregon WMR200

http://www.meteo-pontscorff.fr

High Low Average
Temperature 63.7°F17.6°C 58.8°F14.9°C 60.9°F16.1°C
Dew Point 63.1°F17.3°C 57.4°F14.1°C 60.1°F15.6°C
Winds 8.0 mph 12.9 kmh 1.7 mph 2.7 kmh 5.0 mph WSW8.0 kmh WSW
Wind Gusts 13.9 mph22.4 kmh 2.9 mph4.7 kmh 8.0 mph12.9 kmh
Humidity 98% 92% 97%
Pressure 29.80 in1009.1 mb 29.74 in1007.1 mb -
Precipitation 0.04 in1.0 mm - -
Hour Temp Dew Point Humidity Winds Wind Gusts Pressure Precip Precip Rate Daily Precip Total
12:00 AM 59.0°F15.0°C 57.9°F14.4°C 96% 4.3 mph WSW6.9 kmh WSW 8.5 mph13.7 kmh 29.77 in1008.1 mb 0.00 in0.0 mm 0.00 in0.0 mm 0.00 in0.0 mm
12:05 AM 59.1°F15.1°C 57.9°F14.4°C 96% 5.9 mph WSW9.5 kmh WSW 8.7 mph14.0 kmh 29.77 in1008.1 mb 0.00 in0.0 mm 0.00 in0.0 mm 0.00 in0.0 mm
12:10 AM 59.3°F15.2°C 57.9°F14.4°C 95% 5.3 mph WSW8.5 kmh WSW 9.8 mph15.8 kmh 29.77 in1008.1 mb 0.00 in0.0 mm 0.00 in0.0 mm 0.00 in0.0 mm
12:15 AM 59.2°F15.1°C 57.7°F14.3°C 95% 4.7 mph SW7.6 kmh SW 9.2 mph14.8 kmh 29.77 in1008.1 mb 0.00 in0.0 mm 0.00 in0.0 mm 0.00 in0.0 mm
12:20 AM 59.4°F15.2°C 57.9°F14.4°C 95% 5.1 mph WSW8.2 kmh WSW 7.6 mph12.2 kmh 29.77 in1008.1 mb 0.00 in0.0 mm 0.00 in0.0 mm 0.00 in0.0 mm
12:25 AM 59.4°F15.2°C 57.9°F14.4°C 95% 4.0 mph SW6.4 kmh SW 6.9 mph11.1 kmh 29.77 in1008.1 mb 0.00 in0.0 mm 0.00 in0.0 mm 0.00 in0.0 mm
12:30 AM 59.5°F15.3°C 58.3°F14.6°C 96% 5.1 mph SW8.2 kmh SW 8.5 mph13.7 kmh 29.77 in1008.1 mb 0.00 in0.0 mm 0.00 in0.0 mm 0.00 in0.0 mm
12:35 AM 59.5°F15.3°C 58.4°F14.7°C 96% 4.7 mph WSW7.6 kmh WSW 7.8 mph12.6 kmh 29.77 in1008.1 mb 0.00 in0.0 mm 0.00 in0.0 mm 0.00 in0.0 mm
12:40 AM 59.5°F15.3°C 58.4°F14.7°C 96% 5.1 mph WSW8.2 kmh WSW 13.9 mph22.4 kmh 29.77 in1008.1 mb 0.00 in0.0 mm 0.00 in0.0 mm 0.00 in0.0 mm
12:45 AM 59.6°F15.3°C 58.4°F14.7°C 96% 4.1 mph WSW6.6 kmh WSW 9.4 mph15.1 kmh 29.77 in1008.1 mb 0.00 in0.0 mm 0.00 in0.0 mm 0.00 in0.0 mm
12:50 AM 59.5°F15.3°C 58.6°F14.8°C 97% 4.7 mph W7.6 kmh W 9.2 mph14.8 kmh 29.77 in1008.1 mb 0.00 in0.0 mm 0.00 in0.0 mm 0.00 in0.0 mm
12:55 AM 59.5°F15.3°C 58.7°F14.8°C 97% 4.4 mph WSW7.1 kmh WSW 9.8 mph15.8 kmh 29.77 in1008.1 mb 0.00 in0.0 mm 0.00 in0.0 mm 0.00 in0.0 mm
01:00 AM 59.5°F15.3°C 58.4°F14.7°C 96% 5.0 mph WSW8.0 kmh WSW 10.1 mph16.3 kmh 29.77 in1008.1 mb 0.00 in0.0 mm 0.00 in0.0 mm 0.00 in0.0 mm
01:05 AM 59.5°F15.3°C 58.4°F14.7°C 96% 4.6 mph WSW7.4 kmh WSW 8.3 mph13.4 kmh 29.75 in1007.5 mb 0.00 in0.0 mm 0.00 in0.0 mm 0.00 in0.0 mm
01:10 AM 59.5°F15.3°C 58.4°F14.7°C 96% 4.7 mph WSW7.6 kmh WSW 8.3 mph13.4 kmh 29.74 in1007.1 mb 0.00 in0.0 mm 0.00 in0.0 mm 0.00 in0.0 mm
01:15 AM 59.5°F15.3°C 58.4°F14.7°C 96% 4.8 mph WSW7.7 kmh WSW 9.8 mph15.8 kmh 29.74 in1007.1 mb 0.00 in0.0 mm 0.00 in0.0 mm 0.00 in0.0 mm
01:20 AM 59.5°F15.3°C 58.4°F14.7°C 96% 5.7 mph SW9.2 kmh SW 11.9 mph19.2 kmh 29.74 in1007.1 mb 0.00 in0.0 mm 0.00 in0.0 mm 0.00 in0.0 mm
01:25 AM 59.5°F15.3°C 58.4°F14.7°C 96% 4.4 mph WSW7.1 kmh WSW 8.3 mph13.4 kmh 29.74 in1007.1 mb 0.00 in0.0 mm 0.00 in0.0 mm 0.00 in0.0 mm
01:30 AM 59.4°F15.2°C 58.4°F14.7°C 97% 4.5 mph SW7.2 kmh SW 8.1 mph13.0 kmh 29.74 in1007.1 mb 0.00 in0.0 mm 0.00 in0.0 mm 0.00 in0.0 mm
01:35 AM 59.4°F15.2°C 58.5°F14.7°C 97% 5.7 mph SW9.2 kmh SW 12.8 mph20.6 kmh 29.74 in1007.1 mb 0.00 in0.0 mm 0.00 in0.0 mm 0.00 in0.0 mm
01:40 AM 59.5°F15.3°C 58.7°F14.8°C 97% 6.0 mph W9.7 kmh W 10.5 mph16.9 kmh 29.74 in1007.1 mb 0.00 in0.0 mm 0.00 in0.0 mm 0.00 in0.0 mm
01:45 AM 59.7°F15.4°C 58.7°F14.8°C 97% 8.0 mph WSW12.9 kmh WSW 12.8 mph20.6 kmh 29.74 in1007.1 mb 0.00 in0.0 mm 0.00 in0.0 mm 0.00 in0.0 mm
01:50 AM 59.9°F15.5°C 58.8°F14.9°C 96% 6.4 mph WSW10.3 kmh WSW 8.9 mph14.3 kmh 29.76 in1007.8 mb 0.00 in0.0 mm 0.00 in0.0 mm 0.00 in0.0 mm
01:55 AM 60.0°F15.6°C 58.9°F14.9°C 96% 5.5 mph WSW8.9 kmh WSW 9.8 mph15.8 kmh 29.77 in1008.1 mb 0.00 in0.0 mm 0.00 in0.0 mm 0.00 in0.0 mm
02:00 AM 60.1°F15.6°C 58.9°F14.9°C 96% 4.1 mph W6.6 kmh W 7.8 mph12.6 kmh 29.77 in1008.1 mb 0.00 in0.0 mm 0.00 in0.0 mm 0.00 in0.0 mm
02:05 AM 60.1°F15.6°C 58.9°F14.9°C 96% 4.4 mph WSW7.1 kmh WSW 7.6 mph12.2 kmh 29.77 in1008.1 mb 0.00 in0.0 mm 0.00 in0.0 mm 0.00 in0.0 mm
02:10 AM 60.0°F15.6°C 59.1°F15.1°C 97% 4.5 mph W7.2 kmh W 9.8 mph15.8 kmh 29.77 in1008.1 mb 0.00 in0.0 mm 0.00 in0.0 mm 0.00 in0.0 mm
02:15 AM 59.9°F15.5°C 59.0°F15.0°C 97% 4.7 mph WSW7.6 kmh WSW 6.9 mph11.1 kmh 29.77 in1008.1 mb 0.00 in0.0 mm 0.00 in0.0 mm 0.00 in0.0 mm
02:20 AM 59.9°F15.5°C 59.0°F15.0°C 97% 3.8 mph WSW6.1 kmh WSW 7.4 mph11.9 kmh 29.77 in1008.1 mb 0.00 in0.0 mm 0.00 in0.0 mm 0.00 in0.0 mm
02:25 AM 59.9°F15.5°C 59.0°F15.0°C 97% 4.6 mph WSW7.4 kmh WSW 11.6 mph18.7 kmh 29.77 in1008.1 mb 0.00 in0.0 mm 0.00 in0.0 mm 0.00 in0.0 mm
02:30 AM 59.9°F15.5°C 59.0°F15.0°C 97% 3.9 mph WSW6.3 kmh WSW 7.6 mph12.2 kmh 29.77 in1008.1 mb 0.00 in0.0 mm 0.00 in0.0 mm 0.00 in0.0 mm
02:35 AM 59.9°F15.5°C 59.0°F15.0°C 97% 4.6 mph WSW7.4 kmh WSW 8.7 mph14.0 kmh 29.75 in1007.5 mb 0.00 in0.0 mm 0.00 in0.0 mm 0.00 in0.0 mm
02:40 AM 59.9°F15.5°C 59.0°F15.0°C 97% 5.8 mph WSW9.3 kmh WSW 11.2 mph18.0 kmh 29.74 in1007.1 mb 0.00 in0.0 mm 0.00 in0.0 mm 0.00 in0.0 mm
02:45 AM 60.0°F15.6°C 59.1°F15.1°C 97% 6.5 mph WSW10.5 kmh WSW 11.2 mph18.0 kmh 29.74 in1007.1 mb 0.00 in0.0 mm 0.00 in0.0 mm 0.00 in0.0 mm
02:50 AM 60.1°F15.6°C 59.2°F15.1°C 97% 5.4 mph WSW8.7 kmh WSW 8.5 mph13.7 kmh 29.74 in1007.1 mb 0.00 in0.0 mm 0.00 in0.0 mm 0.00 in0.0 mm
02:55 AM 60.0°F15.6°C 59.2°F15.1°C 97% 5.8 mph WSW9.3 kmh WSW 11.2 mph18.0 kmh 29.74 in1007.1 mb 0.00 in0.0 mm 0.00 in0.0 mm 0.00 in0.0 mm
03:00 AM 59.9°F15.5°C 59.1°F15.1°C 97% 5.3 mph SW8.5 kmh SW 9.8 mph15.8 kmh 29.74 in1007.1 mb 0.00 in0.0 mm 0.00 in0.0 mm 0.00 in0.0 mm
03:05 AM 59.9°F15.5°C 59.0°F15.0°C 97% 5.8 mph WSW9.3 kmh WSW 10.7 mph17.2 kmh 29.74 in1007.1 mb 0.00 in0.0 mm 0.00 in0.0 mm 0.00 in0.0 mm
03:10 AM 59.9°F15.5°C 59.2°F15.1°C 98% 4.6 mph W7.4 kmh W 8.3 mph13.4 kmh 29.74 in1007.1 mb 0.00 in0.0 mm 0.00 in0.0 mm 0.00 in0.0 mm
03:15 AM 59.7°F15.4°C 59.1°F15.1°C 98% 5.0 mph W8.0 kmh W 9.2 mph14.8 kmh 29.74 in1007.1 mb 0.00 in0.0 mm 0.00 in0.0 mm 0.00 in0.0 mm
03:20 AM 59.8°F15.4°C 59.2°F15.1°C 98% 5.5 mph WSW8.9 kmh WSW 9.4 mph15.1 kmh 29.74 in1007.1 mb 0.00 in0.0 mm 0.00 in0.0 mm 0.00 in0.0 mm
03:25 AM 59.9°F15.5°C 59.0°F15.0°C 97% 5.5 mph WSW8.9 kmh WSW 10.3 mph16.6 kmh 29.74 in1007.1 mb 0.00 in0.0 mm 0.00 in0.0 mm 0.00 in0.0 mm
03:30 AM 59.9°F15.5°C 59.0°F15.0°C 97% 6.1 mph WSW9.8 kmh WSW 13.0 mph20.9 kmh 29.74 in1007.1 mb 0.00 in0.0 mm 0.00 in0.0 mm 0.00 in0.0 mm
03:35 AM 59.9°F15.5°C 59.0°F15.0°C 97% 5.9 mph WSW9.5 kmh WSW 10.1 mph16.3 kmh 29.74 in1007.1 mb 0.00 in0.0 mm 0.00 in0.0 mm 0.00 in0.0 mm
03:40 AM 60.0°F15.6°C 59.2°F15.1°C 97% 5.3 mph W8.5 kmh W 12.8 mph20.6 kmh 29.74 in1007.1 mb 0.00 in0.0 mm 0.00 in0.0 mm 0.00 in0.0 mm
03:45 AM 60.1°F15.6°C 59.1°F15.1°C 96% 5.5 mph W8.9 kmh W 9.8 mph15.8 kmh 29.74 in1007.1 mb 0.00 in0.0 mm 0.00 in0.0 mm 0.00 in0.0 mm
03:50 AM 60.1°F15.6°C 58.9°F14.9°C 96% 6.4 mph WSW10.3 kmh WSW 9.8 mph15.8 kmh 29.74 in1007.1 mb 0.00 in0.0 mm 0.00 in0.0 mm 0.00 in0.0 mm
03:55 AM 60.1°F15.6°C 58.7°F14.8°C 95% 6.6 mph W10.6 kmh W 10.7 mph17.2 kmh 29.74 in1007.1 mb 0.00 in0.0 mm 0.00 in0.0 mm 0.00 in0.0 mm
04:00 AM 60.1°F15.6°C 58.6°F14.8°C 95% 5.7 mph WSW9.2 kmh WSW 10.3 mph16.6 kmh 29.74 in1007.1 mb 0.00 in0.0 mm 0.00 in0.0 mm 0.00 in0.0 mm
04:05 AM 60.1°F15.6°C 58.3°F14.6°C 94% 6.5 mph W10.5 kmh W 12.8 mph20.6 kmh 29.74 in1007.1 mb 0.00 in0.0 mm 0.00 in0.0 mm 0.00 in0.0 mm
04:10 AM 60.1°F15.6°C 58.3°F14.6°C 94% 4.3 mph W6.9 kmh W 8.9 mph14.3 kmh 29.74 in1007.1 mb 0.00 in0.0 mm 0.00 in0.0 mm 0.00 in0.0 mm
04:15 AM 60.1°F15.6°C 58.3°F14.6°C 94% 6.0 mph WSW9.7 kmh WSW 10.3 mph16.6 kmh 29.74 in1007.1 mb 0.00 in0.0 mm 0.00 in0.0 mm 0.00 in0.0 mm
04:20 AM 60.1°F15.6°C 58.3°F14.6°C 94% 7.4 mph WSW11.9 kmh WSW 13.4 mph21.6 kmh 29.74 in1007.1 mb 0.00 in0.0 mm 0.00 in0.0 mm 0.00 in0.0 mm
04:25 AM 60.1°F15.6°C 58.3°F14.6°C 94% 5.0 mph W8.0 kmh W 7.8 mph12.6 kmh 29.74 in1007.1 mb 0.00 in0.0 mm 0.00 in0.0 mm 0.00 in0.0 mm
04:30 AM 60.1°F15.6°C 57.9°F14.4°C 92% 6.0 mph W9.7 kmh W 13.4 mph21.6 kmh 29.74 in1007.1 mb 0.00 in0.0 mm 0.00 in0.0 mm 0.00 in0.0 mm
04:35 AM 60.0°F15.6°C 57.6°F14.2°C 92% 6.0 mph WSW9.7 kmh WSW 9.4 mph15.1 kmh 29.74 in1007.1 mb 0.00 in0.0 mm 0.00 in0.0 mm 0.00 in0.0 mm
04:40 AM 59.9°F15.5°C 57.6°F14.2°C 92% 5.2 mph W8.4 kmh W 11.0 mph17.7 kmh 29.74 in1007.1 mb 0.00 in0.0 mm 0.00 in0.0 mm 0.00 in0.0 mm
04:45 AM 59.9°F15.5°C 57.6°F14.2°C 92% 6.0 mph WSW9.7 kmh WSW 10.7 mph17.2 kmh 29.74 in1007.1 mb 0.00 in0.0 mm 0.00 in0.0 mm 0.00 in0.0 mm
04:50 AM 59.9°F15.5°C 57.6°F14.2°C 92% 5.3 mph W8.5 kmh W 8.9 mph14.3 kmh 29.74 in1007.1 mb 0.00 in0.0 mm 0.00 in0.0 mm 0.00 in0.0 mm
04:55 AM 59.8°F15.4°C 57.4°F14.1°C 92% 5.9 mph WSW9.5 kmh WSW 8.9 mph14.3 kmh 29.74 in1007.1 mb 0.00 in0.0 mm 0.00 in0.0 mm 0.00 in0.0 mm
05:00 AM 59.8°F15.4°C 57.5°F14.2°C 92% 5.6 mph W9.0 kmh W 9.8 mph15.8 kmh 29.74 in1007.1 mb 0.00 in0.0 mm 0.00 in0.0 mm 0.00 in0.0 mm
05:05 AM 59.8°F15.4°C 58.0°F14.4°C 94% 4.8 mph W7.7 kmh W 6.9 mph11.1 kmh 29.74 in1007.1 mb 0.00 in0.0 mm 0.00 in0.0 mm 0.00 in0.0 mm
05:10 AM 59.7°F15.4°C 58.0°F14.4°C 94% 5.2 mph WSW8.4 kmh WSW 10.3 mph16.6 kmh 29.74 in1007.1 mb 0.00 in0.0 mm 0.00 in0.0 mm 0.00 in0.0 mm
05:15 AM 59.7°F15.4°C 58.0°F14.4°C 94% 4.8 mph WSW7.7 kmh WSW 7.8 mph12.6 kmh 29.74 in1007.1 mb 0.00 in0.0 mm 0.00 in0.0 mm 0.00 in0.0 mm
05:20 AM 59.7°F15.4°C 58.0°F14.4°C 94% 5.3 mph WSW8.5 kmh WSW 8.3 mph13.4 kmh 29.74 in1007.1 mb 0.00 in0.0 mm 0.00 in0.0 mm 0.00 in0.0 mm
05:25 AM 59.7°F15.4°C 58.0°F14.4°C 94% 5.8 mph W9.3 kmh W 10.3 mph16.6 kmh 29.74 in1007.1 mb 0.00 in0.0 mm 0.00 in0.0 mm 0.00 in0.0 mm
05:30 AM 59.7°F15.4°C 58.3°F14.6°C 95% 5.7 mph WSW9.2 kmh WSW 9.8 mph15.8 kmh 29.74 in1007.1 mb 0.00 in0.0 mm 0.00 in0.0 mm 0.00 in0.0 mm
05:35 AM 59.7°F15.4°C 58.3°F14.6°C 95% 5.0 mph W8.0 kmh W 7.4 mph11.9 kmh 29.74 in1007.1 mb 0.00 in0.0 mm 0.00 in0.0 mm 0.00 in0.0 mm
05:40 AM 59.7°F15.4°C 58.3°F14.6°C 95% 5.3 mph W8.5 kmh W 10.5 mph16.9 kmh 29.74 in1007.1 mb 0.00 in0.0 mm 0.00 in0.0 mm 0.00 in0.0 mm
05:45 AM 59.7°F15.4°C 58.3°F14.6°C 95% 5.5 mph W8.9 kmh W 8.1 mph13.0 kmh 29.74 in1007.1 mb 0.00 in0.0 mm 0.00 in0.0 mm 0.00 in0.0 mm
05:50 AM 59.7°F15.4°C 58.3°F14.6°C 95% 4.6 mph W7.4 kmh W 8.9 mph14.3 kmh 29.74 in1007.1 mb 0.00 in0.0 mm 0.00 in0.0 mm 0.00 in0.0 mm
05:55 AM 59.7°F15.4°C 58.3°F14.6°C 95% 5.9 mph WSW9.5 kmh WSW 10.5 mph16.9 kmh 29.74 in1007.1 mb 0.00 in0.0 mm 0.00 in0.0 mm 0.00 in0.0 mm
06:00 AM 59.7°F15.4°C 58.3°F14.6°C 95% 5.5 mph W8.9 kmh W 11.0 mph17.7 kmh 29.74 in1007.1 mb 0.00 in0.0 mm 0.00 in0.0 mm 0.00 in0.0 mm
06:05 AM 59.7°F15.4°C 58.4°F14.7°C 95% 4.5 mph W7.2 kmh W 8.7 mph14.0 kmh 29.74 in1007.1 mb 0.00 in0.0 mm 0.00 in0.0 mm 0.00 in0.0 mm
06:10 AM 59.7°F15.4°C 58.6°F14.8°C 96% 3.9 mph W6.3 kmh W 6.7 mph10.8 kmh 29.74 in1007.1 mb 0.00 in0.0 mm 0.00 in0.0 mm 0.00 in0.0 mm
06:15 AM 59.7°F15.4°C 58.6°F14.8°C 96% 4.3 mph WSW6.9 kmh WSW 8.5 mph13.7 kmh 29.74 in1007.1 mb 0.00 in0.0 mm 0.00 in0.0 mm 0.00 in0.0 mm
06:20 AM 59.7°F15.4°C 58.7°F14.8°C 96% 5.6 mph SW9.0 kmh SW 10.1 mph16.3 kmh 29.74 in1007.1 mb 0.00 in0.0 mm 0.00 in0.0 mm 0.00 in0.0 mm
06:25 AM 59.7°F15.4°C 58.9°F14.9°C 97% 4.1 mph WSW6.6 kmh WSW 7.4 mph11.9 kmh 29.74 in1007.1 mb 0.00 in0.0 mm 0.00 in0.0 mm 0.00 in0.0 mm
06:30 AM 59.7°F15.4°C 58.9°F14.9°C 97% 4.2 mph W6.8 kmh W 8.5 mph13.7 kmh 29.74 in1007.1 mb 0.00 in0.0 mm 0.00 in0.0 mm 0.00 in0.0 mm
06:35 AM 59.7°F15.4°C 58.9°F14.9°C 97% 4.6 mph W7.4 kmh W 11.6 mph18.7 kmh 29.74 in1007.1 mb 0.00 in0.0 mm 0.00 in0.0 mm 0.00 in0.0 mm
06:40 AM 59.7°F15.4°C 59.1°F15.1°C 98% 5.1 mph WSW8.2 kmh WSW 10.7 mph17.2 kmh 29.74 in1007.1 mb 0.00 in0.0 mm 0.00 in0.0 mm 0.00 in0.0 mm
06:45 AM 59.7°F15.4°C 59.2°F15.1°C 98% 4.8 mph SW7.7 kmh SW 9.2 mph14.8 kmh 29.74 in1007.1 mb 0.00 in0.0 mm 0.00 in0.0 mm 0.00 in0.0 mm
06:50 AM 59.7°F15.4°C 59.2°F15.1°C 98% 5.4 mph WSW8.7 kmh WSW 9.2 mph14.8 kmh 29.76 in1007.8 mb 0.00 in0.0 mm 0.00 in0.0 mm 0.00 in0.0 mm
06:55 AM 59.7°F15.4°C 59.2°F15.1°C 98% 4.1 mph WSW6.6 kmh WSW 9.4 mph15.1 kmh 29.77 in1008.1 mb 0.00 in0.0 mm 0.00 in0.0 mm 0.00 in0.0 mm
07:00 AM 59.6°F15.3°C 59.1°F15.1°C 98% 4.1 mph W6.6 kmh W 5.6 mph9.0 kmh 29.77 in1008.1 mb 0.00 in0.0 mm 0.00 in0.0 mm 0.00 in0.0 mm
07:05 AM 59.5°F15.3°C 58.8°F14.9°C 98% 4.7 mph WSW7.6 kmh WSW 8.3 mph13.4 kmh 29.77 in1008.1 mb 0.00 in0.0 mm 0.00 in0.0 mm 0.00 in0.0 mm
07:10 AM 59.3°F15.2°C 58.4°F14.7°C 97% 4.0 mph W6.4 kmh W 6.7 mph10.8 kmh 29.77 in1008.1 mb 0.00 in0.0 mm 0.00 in0.0 mm 0.00 in0.0 mm
07:15 AM 59.2°F15.1°C 58.3°F14.6°C 97% 4.2 mph W6.8 kmh W 7.6 mph12.2 kmh 29.77 in1008.1 mb 0.00 in0.0 mm 0.00 in0.0 mm 0.00 in0.0 mm
07:20 AM 59.1°F15.1°C 58.2°F14.6°C 97% 3.9 mph WSW6.3 kmh WSW 6.7 mph10.8 kmh 29.77 in1008.1 mb 0.00 in0.0 mm 0.00 in0.0 mm 0.00 in0.0 mm
07:25 AM 59.0°F15.0°C 58.1°F14.5°C 97% 3.4 mph SSW5.5 kmh SSW 5.4 mph8.7 kmh 29.77 in1008.1 mb 0.00 in0.0 mm 0.00 in0.0 mm 0.00 in0.0 mm
07:30 AM 59.0°F15.0°C 58.1°F14.5°C 97% 4.5 mph WSW7.2 kmh WSW 9.8 mph15.8 kmh 29.77 in1008.1 mb 0.00 in0.0 mm 0.00 in0.0 mm 0.00 in0.0 mm
07:35 AM 59.0°F15.0°C 58.1°F14.5°C 97% 3.3 mph NE5.3 kmh NE 4.5 mph7.2 kmh 29.77 in1008.1 mb 0.00 in0.0 mm 0.00 in0.0 mm 0.00 in0.0 mm
07:40 AM 59.0°F15.0°C 58.1°F14.5°C 97% 3.1 mph W5.0 kmh W 4.5 mph7.2 kmh 29.77 in1008.1 mb 0.00 in0.0 mm 0.00 in0.0 mm 0.00 in0.0 mm
07:45 AM 58.9°F14.9°C 58.2°F14.6°C 98% 2.7 mph WSW4.3 kmh WSW 4.5 mph7.2 kmh 29.77 in1008.1 mb 0.00 in0.0 mm 0.00 in0.0 mm 0.00 in0.0 mm
07:50 AM 58.8°F14.9°C 58.3°F14.6°C 98% 2.9 mph W4.7 kmh W 5.6 mph9.0 kmh 29.77 in1008.1 mb 0.00 in0.0 mm 0.00 in0.0 mm 0.00 in0.0 mm
07:55 AM 58.8°F14.9°C 58.3°F14.6°C 98% 3.0 mph WSW4.8 kmh WSW 6.7 mph10.8 kmh 29.77 in1008.1 mb 0.00 in0.0 mm 0.00 in0.0 mm 0.00 in0.0 mm
08:00 AM 58.8°F14.9°C 58.3°F14.6°C 98% 3.0 mph SW4.8 kmh SW 3.4 mph5.5 kmh 29.77 in1008.1 mb 0.00 in0.0 mm 0.00 in0.0 mm 0.00 in0.0 mm
08:05 AM 58.9°F14.9°C 58.4°F14.7°C 98% 3.7 mph WSW6.0 kmh WSW 4.5 mph7.2 kmh 29.77 in1008.1 mb 0.00 in0.0 mm 0.00 in0.0 mm 0.00 in0.0 mm
08:10 AM 59.1°F15.1°C 58.5°F14.7°C 98% 3.0 mph W4.8 kmh W 4.3 mph6.9 kmh 29.77 in1008.1 mb 0.00 in0.0 mm 0.00 in0.0 mm 0.00 in0.0 mm
08:15 AM 59.3°F15.2°C 58.7°F14.8°C 98% 3.3 mph WSW5.3 kmh WSW 6.5 mph10.5 kmh 29.77 in1008.1 mb 0.00 in0.0 mm 0.00 in0.0 mm 0.00 in0.0 mm
08:20 AM 59.5°F15.3°C 59.0°F15.0°C 98% 3.1 mph W5.0 kmh W 4.3 mph6.9 kmh 29.77 in1008.1 mb 0.00 in0.0 mm 0.00 in0.0 mm 0.00 in0.0 mm
08:25 AM 59.8°F15.4°C 59.0°F15.0°C 97% 3.1 mph W5.0 kmh W 6.7 mph10.8 kmh 29.77 in1008.1 mb 0.00 in0.0 mm 0.00 in0.0 mm 0.00 in0.0 mm
08:30 AM 60.1°F15.6°C 59.3°F15.2°C 97% 3.3 mph WSW5.3 kmh WSW 4.5 mph7.2 kmh 29.77 in1008.1 mb 0.00 in0.0 mm 0.00 in0.0 mm 0.00 in0.0 mm
08:35 AM 60.7°F15.9°C 59.8°F15.4°C 97% 3.2 mph W5.1 kmh W 3.6 mph5.8 kmh 29.77 in1008.1 mb 0.00 in0.0 mm 0.00 in0.0 mm 0.00 in0.0 mm
08:40 AM 61.0°F16.1°C 60.1°F15.6°C 97% 3.9 mph WSW6.3 kmh WSW 4.9 mph7.9 kmh 29.77 in1008.1 mb 0.00 in0.0 mm 0.00 in0.0 mm 0.00 in0.0 mm
08:45 AM 61.2°F16.2°C 60.4°F15.8°C 97% 3.4 mph WSW5.5 kmh WSW 5.8 mph9.3 kmh 29.77 in1008.1 mb 0.00 in0.0 mm 0.00 in0.0 mm 0.00 in0.0 mm
08:50 AM 61.5°F16.4°C 60.4°F15.8°C 96% 4.1 mph WSW6.6 kmh WSW 6.7 mph10.8 kmh 29.77 in1008.1 mb 0.00 in0.0 mm 0.00 in0.0 mm 0.00 in0.0 mm
08:55 AM 61.7°F16.5°C 60.5°F15.8°C 96% 3.4 mph SW5.5 kmh SW 6.0 mph9.7 kmh 29.77 in1008.1 mb 0.00 in0.0 mm 0.00 in0.0 mm 0.00 in0.0 mm
09:00 AM 61.9°F16.6°C 60.7°F15.9°C 96% 3.5 mph SW5.6 kmh SW 7.4 mph11.9 kmh 29.77 in1008.1 mb 0.00 in0.0 mm 0.00 in0.0 mm 0.00 in0.0 mm
09:05 AM 62.2°F16.8°C 61.3°F16.3°C 97% 2.2 mph S3.5 kmh S 2.9 mph4.7 kmh 29.77 in1008.1 mb 0.00 in0.0 mm 0.00 in0.0 mm 0.00 in0.0 mm
09:10 AM 62.2°F16.8°C 61.4°F16.3°C 97% 2.7 mph SW4.3 kmh SW 3.6 mph5.8 kmh 29.77 in1008.1 mb 0.00 in0.0 mm 0.00 in0.0 mm 0.00 in0.0 mm
09:15 AM 62.2°F16.8°C 61.1°F16.2°C 96% 3.5 mph WSW5.6 kmh WSW 8.3 mph13.4 kmh 29.77 in1008.1 mb 0.00 in0.0 mm 0.00 in0.0 mm 0.00 in0.0 mm
09:20 AM 62.0°F16.7°C 60.8°F16.0°C 96% 3.8 mph SW6.1 kmh SW 8.1 mph13.0 kmh 29.77 in1008.1 mb 0.00 in0.0 mm 0.00 in0.0 mm 0.00 in0.0 mm
09:25 AM 61.9°F16.6°C 60.9°F16.1°C 97% 3.5 mph WSW5.6 kmh WSW 8.7 mph14.0 kmh 29.77 in1008.1 mb 0.00 in0.0 mm 0.00 in0.0 mm 0.00 in0.0 mm
09:30 AM 61.7°F16.5°C 60.9°F16.1°C 97% 3.8 mph WSW6.1 kmh WSW 6.7 mph10.8 kmh 29.77 in1008.1 mb 0.00 in0.0 mm 0.00 in0.0 mm 0.00 in0.0 mm
09:35 AM 61.7°F16.5°C 61.0°F16.1°C 97% 4.0 mph SW6.4 kmh SW 8.7 mph14.0 kmh 29.77 in1008.1 mb 0.00 in0.0 mm 0.00 in0.0 mm 0.00 in0.0 mm
09:40 AM 61.5°F16.4°C 60.9°F16.1°C 98% 4.7 mph WSW7.6 kmh WSW 6.7 mph10.8 kmh 29.77 in1008.1 mb 0.00 in0.0 mm 0.00 in0.0 mm 0.00 in0.0 mm
11:55 AM 60.6°F15.9°C 60.1°F15.6°C 98% 4.4 mph WSW7.1 kmh WSW 7.8 mph12.6 kmh 29.74 in1007.1 mb 0.00 in0.0 mm 0.00 in0.0 mm 0.00 in0.0 mm
12:00 PM 60.7°F15.9°C 60.2°F15.7°C 98% 3.9 mph SW6.3 kmh SW 6.7 mph10.8 kmh 29.74 in1007.1 mb 0.00 in0.0 mm 0.00 in0.0 mm 0.00 in0.0 mm
12:05 PM 61.1°F16.2°C 60.5°F15.8°C 98% 3.8 mph W6.1 kmh W 6.9 mph11.1 kmh 29.76 in1007.8 mb 0.00 in0.0 mm 0.00 in0.0 mm 0.00 in0.0 mm
12:10 PM 61.4°F16.3°C 60.8°F16.0°C 98% 4.5 mph W7.2 kmh W 6.3 mph10.1 kmh 29.77 in1008.1 mb 0.00 in0.0 mm 0.00 in0.0 mm 0.00 in0.0 mm
12:15 PM 61.6°F16.4°C 61.0°F16.1°C 98% 4.7 mph W7.6 kmh W 7.6 mph12.2 kmh 29.77 in1008.1 mb 0.00 in0.0 mm 0.00 in0.0 mm 0.00 in0.0 mm
12:20 PM 61.8°F16.6°C 61.2°F16.2°C 98% 4.2 mph WSW6.8 kmh WSW 8.9 mph14.3 kmh 29.77 in1008.1 mb 0.00 in0.0 mm 0.00 in0.0 mm 0.00 in0.0 mm
12:25 PM 61.9°F16.6°C 61.3°F16.3°C 98% 4.6 mph WSW7.4 kmh WSW 6.7 mph10.8 kmh 29.77 in1008.1 mb 0.00 in0.0 mm 0.00 in0.0 mm 0.00 in0.0 mm
12:30 PM 62.0°F16.7°C 61.4°F16.3°C 98% 4.3 mph WSW6.9 kmh WSW 6.9 mph11.1 kmh 29.77 in1008.1 mb 0.00 in0.0 mm 0.00 in0.0 mm 0.00 in0.0 mm
12:35 PM 62.1°F16.7°C 61.5°F16.4°C 98% 4.3 mph W6.9 kmh W 8.5 mph13.7 kmh 29.77 in1008.1 mb 0.00 in0.0 mm 0.00 in0.0 mm 0.00 in0.0 mm
12:40 PM 62.1°F16.7°C 61.5°F16.4°C 98% 5.1 mph WSW8.2 kmh WSW 8.3 mph13.4 kmh 29.77 in1008.1 mb 0.00 in0.0 mm 0.00 in0.0 mm 0.00 in0.0 mm
12:45 PM 62.1°F16.7°C 61.6°F16.4°C 98% 3.7 mph WSW6.0 kmh WSW 6.0 mph9.7 kmh 29.77 in1008.1 mb 0.00 in0.0 mm 0.00 in0.0 mm 0.00 in0.0 mm
12:50 PM 62.3°F16.8°C 61.8°F16.6°C 98% 3.9 mph W6.3 kmh W 6.5 mph10.5 kmh 29.75 in1007.5 mb 0.00 in0.0 mm 0.00 in0.0 mm 0.00 in0.0 mm
12:55 PM 62.4°F16.9°C 61.8°F16.6°C 98% 4.8 mph W7.7 kmh W 8.1 mph13.0 kmh 29.74 in1007.1 mb 0.00 in0.0 mm 0.00 in0.0 mm 0.00 in0.0 mm
01:00 PM 62.9°F17.2°C 62.3°F16.8°C 98% 4.3 mph WSW6.9 kmh WSW 8.7 mph14.0 kmh 29.74 in1007.1 mb 0.00 in0.0 mm 0.00 in0.0 mm 0.00 in0.0 mm
01:05 PM 63.2°F17.3°C 62.7°F17.1°C 98% 5.2 mph W8.4 kmh W 11.0 mph17.7 kmh 29.76 in1007.8 mb 0.00 in0.0 mm 0.00 in0.0 mm 0.00 in0.0 mm
01:10 PM 63.6°F17.6°C 63.0°F17.2°C 98% 4.2 mph WSW6.8 kmh WSW 7.6 mph12.2 kmh 29.77 in1008.1 mb 0.00 in0.0 mm 0.00 in0.0 mm 0.00 in0.0 mm
01:15 PM 63.6°F17.6°C 63.0°F17.2°C 98% 4.8 mph WSW7.7 kmh WSW 9.8 mph15.8 kmh 29.77 in1008.1 mb 0.00 in0.0 mm 0.00 in0.0 mm 0.00 in0.0 mm
01:20 PM 63.3°F17.4°C 62.8°F17.1°C 98% 4.2 mph WSW6.8 kmh WSW 6.9 mph11.1 kmh 29.77 in1008.1 mb 0.00 in0.0 mm 0.00 in0.0 mm 0.00 in0.0 mm
01:25 PM 63.0°F17.2°C 62.4°F16.9°C 98% 3.6 mph W5.8 kmh W 5.6 mph9.0 kmh 29.77 in1008.1 mb 0.00 in0.0 mm 0.00 in0.0 mm 0.00 in0.0 mm
01:30 PM 62.8°F17.1°C 62.2°F16.8°C 98% 4.1 mph WSW6.6 kmh WSW 8.3 mph13.4 kmh 29.77 in1008.1 mb 0.00 in0.0 mm 0.00 in0.0 mm 0.00 in0.0 mm
01:35 PM 62.8°F17.1°C 62.2°F16.8°C 98% 3.2 mph WSW5.1 kmh WSW 5.8 mph9.3 kmh 29.77 in1008.1 mb 0.00 in0.0 mm 0.00 in0.0 mm 0.00 in0.0 mm
01:40 PM 63.3°F17.4°C 62.7°F17.1°C 98% 4.1 mph WSW6.6 kmh WSW 6.5 mph10.5 kmh 29.77 in1008.1 mb 0.00 in0.0 mm 0.00 in0.0 mm 0.00 in0.0 mm
01:45 PM 63.6°F17.6°C 63.0°F17.2°C 98% 5.1 mph WSW8.2 kmh WSW 11.9 mph19.2 kmh 29.77 in1008.1 mb 0.00 in0.0 mm 0.00 in0.0 mm 0.00 in0.0 mm
01:50 PM 63.7°F17.6°C 63.1°F17.3°C 98% 4.1 mph WSW6.6 kmh WSW 6.3 mph10.1 kmh 29.77 in1008.1 mb 0.00 in0.0 mm 0.00 in0.0 mm 0.00 in0.0 mm
01:55 PM 63.5°F17.5°C 63.0°F17.2°C 98% 5.1 mph WSW8.2 kmh WSW 8.9 mph14.3 kmh 29.77 in1008.1 mb 0.00 in0.0 mm 0.00 in0.0 mm 0.00 in0.0 mm
02:00 PM 63.4°F17.4°C 62.8°F17.1°C 98% 5.8 mph WSW9.3 kmh WSW 9.2 mph14.8 kmh 29.77 in1008.1 mb 0.00 in0.0 mm 0.00 in0.0 mm 0.00 in0.0 mm
02:05 PM 63.0°F17.2°C 62.4°F16.9°C 98% 5.5 mph WSW8.9 kmh WSW 9.8 mph15.8 kmh 29.79 in1008.8 mb 0.00 in0.0 mm 0.00 in0.0 mm 0.00 in0.0 mm
02:10 PM 62.7°F17.1°C 62.2°F16.8°C 98% 4.2 mph WSW6.8 kmh WSW 9.2 mph14.8 kmh 29.80 in1009.1 mb 0.00 in0.0 mm 0.00 in0.0 mm 0.00 in0.0 mm
02:15 PM 62.6°F17.0°C 62.0°F16.7°C 98% 4.2 mph WSW6.8 kmh WSW 7.4 mph11.9 kmh 29.80 in1009.1 mb 0.00 in0.0 mm 0.00 in0.0 mm 0.00 in0.0 mm
02:20 PM 62.3°F16.8°C 61.8°F16.6°C 98% 4.6 mph SW7.4 kmh SW 8.1 mph13.0 kmh 29.78 in1008.5 mb 0.00 in0.0 mm 0.00 in0.0 mm 0.00 in0.0 mm
02:25 PM 62.1°F16.7°C 61.5°F16.4°C 98% 3.8 mph WSW6.1 kmh WSW 5.8 mph9.3 kmh 29.77 in1008.1 mb 0.00 in0.0 mm 0.00 in0.0 mm 0.00 in0.0 mm
02:30 PM 62.1°F16.7°C 61.5°F16.4°C 98% 4.2 mph WSW6.8 kmh WSW 8.3 mph13.4 kmh 29.77 in1008.1 mb 0.00 in0.0 mm 0.00 in0.0 mm 0.00 in0.0 mm
02:35 PM 62.1°F16.7°C 61.5°F16.4°C 98% 4.7 mph WSW7.6 kmh WSW 9.8 mph15.8 kmh 29.79 in1008.8 mb 0.00 in0.0 mm 0.00 in0.0 mm 0.00 in0.0 mm
02:40 PM 62.1°F16.7°C 61.5°F16.4°C 98% 4.4 mph WSW7.1 kmh WSW 9.8 mph15.8 kmh 29.80 in1009.1 mb 0.00 in0.0 mm 0.00 in0.0 mm 0.00 in0.0 mm
02:45 PM 62.0°F16.7°C 61.4°F16.3°C 98% 5.6 mph WSW9.0 kmh WSW 9.4 mph15.1 kmh 29.80 in1009.1 mb 0.00 in0.0 mm 0.00 in0.0 mm 0.00 in0.0 mm
02:50 PM 62.1°F16.7°C 61.5°F16.4°C 98% 5.0 mph WSW8.0 kmh WSW 9.2 mph14.8 kmh 29.78 in1008.5 mb 0.00 in0.0 mm 0.00 in0.0 mm 0.00 in0.0 mm
02:55 PM 62.1°F16.7°C 61.5°F16.4°C 98% 4.1 mph WSW6.6 kmh WSW 6.9 mph11.1 kmh 29.77 in1008.1 mb 0.00 in0.0 mm 0.00 in0.0 mm 0.00 in0.0 mm
03:00 PM 62.1°F16.7°C 61.5°F16.4°C 98% 3.7 mph W6.0 kmh W 6.9 mph11.1 kmh 29.77 in1008.1 mb 0.00 in0.0 mm 0.00 in0.0 mm 0.00 in0.0 mm
03:05 PM 62.2°F16.8°C 61.7°F16.5°C 98% 4.1 mph W6.6 kmh W 8.1 mph13.0 kmh 29.77 in1008.1 mb 0.00 in0.0 mm 0.00 in0.0 mm 0.00 in0.0 mm
03:10 PM 62.4°F16.9°C 61.8°F16.6°C 98% 2.9 mph W4.7 kmh W 5.6 mph9.0 kmh 29.77 in1008.1 mb 0.00 in0.0 mm 0.00 in0.0 mm 0.00 in0.0 mm
03:15 PM 62.5°F16.9°C 61.9°F16.6°C 98% 5.1 mph W8.2 kmh W 9.4 mph15.1 kmh 29.77 in1008.1 mb 0.00 in0.0 mm 0.00 in0.0 mm 0.00 in0.0 mm
03:20 PM 62.3°F16.8°C 61.7°F16.5°C 98% 6.5 mph WSW10.5 kmh WSW 13.0 mph20.9 kmh 29.77 in1008.1 mb 0.00 in0.0 mm 0.00 in0.0 mm 0.00 in0.0 mm
03:25 PM 62.2°F16.8°C 61.6°F16.4°C 98% 5.8 mph W9.3 kmh W 9.8 mph15.8 kmh 29.77 in1008.1 mb 0.00 in0.0 mm 0.00 in0.0 mm 0.00 in0.0 mm
03:30 PM 61.9°F16.6°C 61.4°F16.3°C 98% 7.1 mph W11.4 kmh W 11.4 mph18.3 kmh 29.77 in1008.1 mb 0.00 in0.0 mm 0.00 in0.0 mm 0.00 in0.0 mm
03:35 PM 62.5°F16.9°C 61.9°F16.6°C 98% 4.5 mph W7.2 kmh W 8.9 mph14.3 kmh 29.79 in1008.8 mb 0.00 in0.0 mm 0.00 in0.0 mm 0.00 in0.0 mm
03:40 PM 62.7°F17.1°C 62.2°F16.8°C 98% 4.6 mph W7.4 kmh W 10.5 mph16.9 kmh 29.80 in1009.1 mb 0.00 in0.0 mm 0.00 in0.0 mm 0.00 in0.0 mm
03:45 PM 62.7°F17.1°C 62.0°F16.7°C 98% 5.1 mph WSW8.2 kmh WSW 10.3 mph16.6 kmh 29.80 in1009.1 mb 0.00 in0.0 mm 0.00 in0.0 mm 0.00 in0.0 mm
03:50 PM 62.6°F17.0°C 61.8°F16.6°C 97% 5.3 mph WSW8.5 kmh WSW 10.7 mph17.2 kmh 29.76 in1007.8 mb 0.00 in0.0 mm 0.00 in0.0 mm 0.00 in0.0 mm
03:55 PM 62.3°F16.8°C 61.6°F16.4°C 98% 5.1 mph WSW8.2 kmh WSW 11.4 mph18.3 kmh 29.74 in1007.1 mb 0.00 in0.0 mm 0.00 in0.0 mm 0.00 in0.0 mm
04:00 PM 62.4°F16.9°C 61.8°F16.6°C 98% 3.5 mph WNW5.6 kmh WNW 7.4 mph11.9 kmh 29.74 in1007.1 mb 0.00 in0.0 mm 0.00 in0.0 mm 0.00 in0.0 mm
04:05 PM 62.2°F16.8°C 61.6°F16.4°C 98% 3.9 mph WSW6.3 kmh WSW 8.3 mph13.4 kmh 29.76 in1007.8 mb 0.00 in0.0 mm 0.00 in0.0 mm 0.00 in0.0 mm
04:10 PM 62.0°F16.7°C 61.4°F16.3°C 98% 4.8 mph WSW7.7 kmh WSW 8.3 mph13.4 kmh 29.77 in1008.1 mb 0.00 in0.0 mm 0.00 in0.0 mm 0.00 in0.0 mm
04:15 PM 61.9°F16.6°C 61.3°F16.3°C 98% 2.6 mph WSW4.2 kmh WSW 6.3 mph10.1 kmh 29.77 in1008.1 mb 0.00 in0.0 mm 0.00 in0.0 mm 0.00 in0.0 mm
04:20 PM 61.6°F16.4°C 61.0°F16.1°C 98% 4.6 mph WSW7.4 kmh WSW 9.2 mph14.8 kmh 29.77 in1008.1 mb 0.00 in0.0 mm 0.00 in0.0 mm 0.00 in0.0 mm
04:25 PM 61.3°F16.3°C 60.7°F15.9°C 98% 3.6 mph WSW5.8 kmh WSW 6.3 mph10.1 kmh 29.77 in1008.1 mb 0.00 in0.0 mm 0.00 in0.0 mm 0.00 in0.0 mm
04:30 PM 61.2°F16.2°C 60.6°F15.9°C 98% 1.9 mph W3.1 kmh W 3.8 mph6.1 kmh 29.77 in1008.1 mb 0.00 in0.0 mm 0.00 in0.0 mm 0.00 in0.0 mm
04:35 PM 61.2°F16.2°C 60.6°F15.9°C 98% 2.0 mph WSW3.2 kmh WSW 4.3 mph6.9 kmh 29.77 in1008.1 mb 0.00 in0.0 mm 0.00 in0.0 mm 0.00 in0.0 mm
04:40 PM 61.1°F16.2°C 60.5°F15.8°C 98% 2.9 mph W4.7 kmh W 6.3 mph10.1 kmh 29.77 in1008.1 mb 0.00 in0.0 mm 0.00 in0.0 mm 0.00 in0.0 mm
04:45 PM 61.0°F16.1°C 60.4°F15.8°C 98% 2.8 mph SW4.5 kmh SW 5.6 mph9.0 kmh 29.77 in1008.1 mb 0.00 in0.0 mm 0.00 in0.0 mm 0.00 in0.0 mm
04:50 PM 61.0°F16.1°C 60.4°F15.8°C 98% 1.7 mph WSW2.7 kmh WSW 4.0 mph6.4 kmh 29.75 in1007.5 mb 0.00 in0.0 mm 0.00 in0.0 mm 0.00 in0.0 mm
04:55 PM 61.0°F16.1°C 60.4°F15.8°C 98% 3.1 mph WSW5.0 kmh WSW 4.9 mph7.9 kmh 29.74 in1007.1 mb 0.00 in0.0 mm 0.00 in0.0 mm 0.00 in0.0 mm
05:00 PM 61.0°F16.1°C 60.4°F15.8°C 98% 3.5 mph W5.6 kmh W 5.4 mph8.7 kmh 29.74 in1007.1 mb 0.00 in0.0 mm 0.00 in0.0 mm 0.00 in0.0 mm
05:05 PM 61.0°F16.1°C 60.4°F15.8°C 98% 2.5 mph SW4.0 kmh SW 5.1 mph8.2 kmh 29.76 in1007.8 mb 0.00 in0.0 mm 0.00 in0.0 mm 0.00 in0.0 mm
05:10 PM 61.0°F16.1°C 60.4°F15.8°C 98% 2.8 mph WSW4.5 kmh WSW 4.3 mph6.9 kmh 29.77 in1008.1 mb 0.00 in0.0 mm 0.00 in0.0 mm 0.00 in0.0 mm
05:15 PM 61.0°F16.1°C 60.4°F15.8°C 98% 3.9 mph WSW6.3 kmh WSW 6.5 mph10.5 kmh 29.77 in1008.1 mb 0.00 in0.0 mm 0.00 in0.0 mm 0.00 in0.0 mm
05:20 PM 61.0°F16.1°C 60.4°F15.8°C 98% 5.3 mph WSW8.5 kmh WSW 9.2 mph14.8 kmh 29.75 in1007.5 mb 0.00 in0.0 mm 0.00 in0.0 mm 0.00 in0.0 mm
05:25 PM 61.0°F16.1°C 60.4°F15.8°C 98% 5.6 mph W9.0 kmh W 8.1 mph13.0 kmh 29.74 in1007.1 mb 0.00 in0.0 mm 0.00 in0.0 mm 0.00 in0.0 mm
05:30 PM 61.0°F16.1°C 60.4°F15.8°C 98% 4.9 mph W7.9 kmh W 8.7 mph14.0 kmh 29.74 in1007.1 mb 0.00 in0.0 mm 0.00 in0.0 mm 0.00 in0.0 mm
05:35 PM 61.0°F16.1°C 60.4°F15.8°C 98% 4.8 mph W7.7 kmh W 8.5 mph13.7 kmh 29.76 in1007.8 mb 0.00 in0.0 mm 0.00 in0.0 mm 0.00 in0.0 mm
05:40 PM 61.0°F16.1°C 60.4°F15.8°C 98% 5.3 mph W8.5 kmh W 8.5 mph13.7 kmh 29.77 in1008.1 mb 0.00 in0.0 mm 0.00 in0.0 mm 0.00 in0.0 mm
05:45 PM 61.0°F16.1°C 60.4°F15.8°C 98% 4.3 mph WSW6.9 kmh WSW 8.5 mph13.7 kmh 29.77 in1008.1 mb 0.00 in0.0 mm 0.00 in0.0 mm 0.00 in0.0 mm
05:50 PM 61.0°F16.1°C 60.4°F15.8°C 98% 3.7 mph W6.0 kmh W 7.4 mph11.9 kmh 29.77 in1008.1 mb 0.00 in0.0 mm 0.00 in0.0 mm 0.00 in0.0 mm
05:55 PM 61.0°F16.1°C 60.4°F15.8°C 98% 4.3 mph WSW6.9 kmh WSW 7.4 mph11.9 kmh 29.77 in1008.1 mb 0.00 in0.0 mm 0.00 in0.0 mm 0.00 in0.0 mm
06:00 PM 61.0°F16.1°C 60.4°F15.8°C 98% 3.1 mph W5.0 kmh W 4.9 mph7.9 kmh 29.77 in1008.1 mb 0.00 in0.0 mm 0.00 in0.0 mm 0.00 in0.0 mm
06:05 PM 61.0°F16.1°C 60.4°F15.8°C 98% 3.1 mph WNW5.0 kmh WNW 5.1 mph8.2 kmh 29.75 in1007.5 mb 0.00 in0.0 mm 0.00 in0.0 mm 0.00 in0.0 mm
06:10 PM 61.0°F16.1°C 60.4°F15.8°C 98% 4.0 mph W6.4 kmh W 7.4 mph11.9 kmh 29.74 in1007.1 mb 0.00 in0.0 mm 0.00 in0.0 mm 0.00 in0.0 mm
06:15 PM 61.0°F16.1°C 60.4°F15.8°C 98% 4.2 mph WSW6.8 kmh WSW 6.0 mph9.7 kmh 29.74 in1007.1 mb 0.00 in0.0 mm 0.00 in0.0 mm 0.00 in0.0 mm
06:20 PM 61.0°F16.1°C 60.4°F15.8°C 98% 4.4 mph W7.1 kmh W 7.8 mph12.6 kmh 29.76 in1007.8 mb 0.00 in0.0 mm 0.00 in0.0 mm 0.00 in0.0 mm
06:25 PM 61.0°F16.1°C 60.4°F15.8°C 98% 4.6 mph WSW7.4 kmh WSW 7.8 mph12.6 kmh 29.77 in1008.1 mb 0.00 in0.0 mm 0.00 in0.0 mm 0.00 in0.0 mm
06:30 PM 61.0°F16.1°C 60.4°F15.8°C 98% 4.9 mph WSW7.9 kmh WSW 8.7 mph14.0 kmh 29.77 in1008.1 mb 0.00 in0.0 mm 0.00 in0.0 mm 0.00 in0.0 mm
06:35 PM 61.0°F16.1°C 60.4°F15.8°C 98% 4.1 mph WSW6.6 kmh WSW 8.1 mph13.0 kmh 29.75 in1007.5 mb 0.00 in0.0 mm 0.00 in0.0 mm 0.00 in0.0 mm
06:40 PM 61.0°F16.1°C 60.4°F15.8°C 98% 3.8 mph W6.1 kmh W 7.6 mph12.2 kmh 29.74 in1007.1 mb 0.00 in0.0 mm 0.00 in0.0 mm 0.00 in0.0 mm
06:45 PM 61.0°F16.1°C 60.4°F15.8°C 98% 3.7 mph WSW6.0 kmh WSW 6.5 mph10.5 kmh 29.74 in1007.1 mb 0.00 in0.0 mm 0.00 in0.0 mm 0.00 in0.0 mm
06:50 PM 61.0°F16.1°C 60.4°F15.8°C 98% 4.5 mph WSW7.2 kmh WSW 7.4 mph11.9 kmh 29.74 in1007.1 mb 0.00 in0.0 mm 0.00 in0.0 mm 0.00 in0.0 mm
06:55 PM 61.0°F16.1°C 60.4°F15.8°C 98% 4.0 mph WSW6.4 kmh WSW 6.9 mph11.1 kmh 29.74 in1007.1 mb 0.00 in0.0 mm 0.00 in0.0 mm 0.00 in0.0 mm
07:00 PM 61.0°F16.1°C 60.4°F15.8°C 98% 4.2 mph WSW6.8 kmh WSW 6.9 mph11.1 kmh 29.74 in1007.1 mb 0.00 in0.0 mm 0.00 in0.0 mm 0.00 in0.0 mm
07:05 PM 61.0°F16.1°C 60.4°F15.8°C 98% 4.3 mph WSW6.9 kmh WSW 6.9 mph11.1 kmh 29.74 in1007.1 mb 0.00 in0.0 mm 0.00 in0.0 mm 0.00 in0.0 mm
07:10 PM 61.0°F16.1°C 60.4°F15.8°C 98% 3.3 mph WSW5.3 kmh WSW 5.8 mph9.3 kmh 29.74 in1007.1 mb 0.00 in0.0 mm 0.00 in0.0 mm 0.00 in0.0 mm
07:15 PM 61.0°F16.1°C 60.4°F15.8°C 98% 4.0 mph WSW6.4 kmh WSW 7.4 mph11.9 kmh 29.74 in1007.1 mb 0.00 in0.0 mm 0.00 in0.0 mm 0.00 in0.0 mm
07:20 PM 61.0°F16.1°C 60.4°F15.8°C 98% 3.5 mph WSW5.6 kmh WSW 5.6 mph9.0 kmh 29.74 in1007.1 mb 0.00 in0.0 mm 0.00 in0.0 mm 0.00 in0.0 mm
07:25 PM 61.0°F16.1°C 60.5°F15.8°C 98% 4.2 mph WSW6.8 kmh WSW 6.9 mph11.1 kmh 29.74 in1007.1 mb 0.00 in0.0 mm 0.00 in0.0 mm 0.00 in0.0 mm
07:30 PM 61.2°F16.2°C 60.6°F15.9°C 98% 3.9 mph WSW6.3 kmh WSW 6.3 mph10.1 kmh 29.74 in1007.1 mb 0.00 in0.0 mm 0.00 in0.0 mm 0.00 in0.0 mm
07:35 PM 61.2°F16.2°C 60.6°F15.9°C 98% 4.4 mph NNW7.1 kmh NNW 6.3 mph10.1 kmh 29.74 in1007.1 mb 0.00 in0.0 mm 0.00 in0.0 mm 0.00 in0.0 mm
07:40 PM 61.2°F16.2°C 60.6°F15.9°C 98% 4.3 mph WSW6.9 kmh WSW 6.7 mph10.8 kmh 29.74 in1007.1 mb 0.00 in0.0 mm 0.00 in0.0 mm 0.00 in0.0 mm
07:45 PM 61.2°F16.2°C 60.6°F15.9°C 98% 3.6 mph WNW5.8 kmh WNW 6.3 mph10.1 kmh 29.74 in1007.1 mb 0.00 in0.0 mm 0.00 in0.0 mm 0.00 in0.0 mm
07:50 PM 61.3°F16.3°C 60.7°F15.9°C 98% 5.0 mph WSW8.0 kmh WSW 8.3 mph13.4 kmh 29.76 in1007.8 mb 0.00 in0.0 mm 0.00 in0.0 mm 0.00 in0.0 mm
07:55 PM 61.3°F16.3°C 60.8°F16.0°C 98% 4.1 mph NW6.6 kmh NW 7.6 mph12.2 kmh 29.77 in1008.1 mb 0.00 in0.0 mm 0.00 in0.0 mm 0.00 in0.0 mm
08:00 PM 61.3°F16.3°C 60.8°F16.0°C 98% 5.3 mph W8.5 kmh W 8.9 mph14.3 kmh 29.77 in1008.1 mb 0.00 in0.0 mm 0.00 in0.0 mm 0.00 in0.0 mm
08:05 PM 61.3°F16.3°C 60.8°F16.0°C 98% 4.5 mph WSW7.2 kmh WSW 6.7 mph10.8 kmh 29.77 in1008.1 mb 0.00 in0.0 mm 0.00 in0.0 mm 0.00 in0.0 mm
08:10 PM 61.3°F16.3°C 60.8°F16.0°C 98% 4.9 mph WSW7.9 kmh WSW 7.4 mph11.9 kmh 29.77 in1008.1 mb 0.00 in0.0 mm 0.00 in0.0 mm 0.00 in0.0 mm
08:15 PM 61.5°F16.4°C 60.9°F16.1°C 98% 5.6 mph W9.0 kmh W 9.8 mph15.8 kmh 29.77 in1008.1 mb 0.00 in0.0 mm 0.00 in0.0 mm 0.00 in0.0 mm
08:20 PM 61.5°F16.4°C 60.9°F16.1°C 98% 4.6 mph SW7.4 kmh SW 8.3 mph13.4 kmh 29.77 in1008.1 mb 0.00 in0.0 mm 0.00 in0.0 mm 0.00 in0.0 mm
08:25 PM 61.5°F16.4°C 60.9°F16.1°C 98% 3.8 mph W6.1 kmh W 6.9 mph11.1 kmh 29.77 in1008.1 mb 0.00 in0.0 mm 0.00 in0.0 mm 0.00 in0.0 mm
08:30 PM 61.5°F16.4°C 60.9°F16.1°C 98% 5.0 mph WSW8.0 kmh WSW 7.4 mph11.9 kmh 29.77 in1008.1 mb 0.00 in0.0 mm 0.00 in0.0 mm 0.00 in0.0 mm
08:35 PM 61.5°F16.4°C 60.9°F16.1°C 98% 4.2 mph WSW6.8 kmh WSW 8.7 mph14.0 kmh 29.77 in1008.1 mb 0.00 in0.0 mm 0.00 in0.0 mm 0.00 in0.0 mm
08:40 PM 61.5°F16.4°C 60.9°F16.1°C 98% 5.1 mph WSW8.2 kmh WSW 8.7 mph14.0 kmh 29.77 in1008.1 mb 0.00 in0.0 mm 0.00 in0.0 mm 0.00 in0.0 mm
08:45 PM 61.5°F16.4°C 60.9°F16.1°C 98% 5.3 mph WSW8.5 kmh WSW 8.7 mph14.0 kmh 29.77 in1008.1 mb 0.00 in0.0 mm 0.00 in0.0 mm 0.00 in0.0 mm
08:50 PM 61.6°F16.4°C 61.1°F16.2°C 98% 4.5 mph W7.2 kmh W 8.5 mph13.7 kmh 29.79 in1008.8 mb 0.00 in0.0 mm 0.00 in0.0 mm 0.00 in0.0 mm
08:55 PM 61.7°F16.5°C 61.1°F16.2°C 98% 4.9 mph WSW7.9 kmh WSW 7.8 mph12.6 kmh 29.80 in1009.1 mb 0.00 in0.0 mm 0.00 in0.0 mm 0.00 in0.0 mm
09:00 PM 61.7°F16.5°C 61.1°F16.2°C 98% 4.4 mph W7.1 kmh W 6.0 mph9.7 kmh 29.80 in1009.1 mb 0.00 in0.0 mm 0.00 in0.0 mm 0.00 in0.0 mm
09:05 PM 61.7°F16.5°C 61.1°F16.2°C 98% 4.7 mph SW7.6 kmh SW 8.9 mph14.3 kmh 29.80 in1009.1 mb 0.00 in0.0 mm 0.00 in0.0 mm 0.00 in0.0 mm
09:10 PM 61.7°F16.5°C 61.1°F16.2°C 98% 5.3 mph WSW8.5 kmh WSW 9.4 mph15.1 kmh 29.80 in1009.1 mb 0.00 in0.0 mm 0.00 in0.0 mm 0.00 in0.0 mm
09:15 PM 61.7°F16.5°C 61.1°F16.2°C 98% 4.1 mph W6.6 kmh W 6.5 mph10.5 kmh 29.80 in1009.1 mb 0.00 in0.0 mm 0.00 in0.0 mm 0.00 in0.0 mm
09:20 PM 61.7°F16.5°C 61.1°F16.2°C 98% 4.4 mph WSW7.1 kmh WSW 8.3 mph13.4 kmh 29.80 in1009.1 mb 0.00 in0.0 mm 0.00 in0.0 mm 0.00 in0.0 mm
09:25 PM 61.7°F16.5°C 61.1°F16.2°C 98% 4.6 mph WSW7.4 kmh WSW 9.4 mph15.1 kmh 29.80 in1009.1 mb 0.00 in0.0 mm 0.00 in0.0 mm 0.00 in0.0 mm
09:30 PM 61.7°F16.5°C 61.1°F16.2°C 98% 6.0 mph W9.7 kmh W 9.2 mph14.8 kmh 29.80 in1009.1 mb 0.00 in0.0 mm 0.00 in0.0 mm 0.00 in0.0 mm
09:35 PM 61.7°F16.5°C 61.1°F16.2°C 98% 5.5 mph WSW8.9 kmh WSW 8.5 mph13.7 kmh 29.80 in1009.1 mb 0.00 in0.0 mm 0.00 in0.0 mm 0.00 in0.0 mm
09:40 PM 61.7°F16.5°C 61.1°F16.2°C 98% 5.7 mph W9.2 kmh W 10.1 mph16.3 kmh 29.80 in1009.1 mb 0.00 in0.0 mm 0.00 in0.0 mm 0.00 in0.0 mm
09:45 PM 61.7°F16.5°C 61.1°F16.2°C 98% 5.1 mph WSW8.2 kmh WSW 8.5 mph13.7 kmh 29.80 in1009.1 mb 0.00 in0.0 mm 0.00 in0.0 mm 0.00 in0.0 mm
09:50 PM 61.7°F16.5°C 61.1°F16.2°C 98% 4.9 mph WSW7.9 kmh WSW 8.7 mph14.0 kmh 29.80 in1009.1 mb 0.00 in0.0 mm 0.00 in0.0 mm 0.00 in0.0 mm
09:55 PM 61.7°F16.5°C 61.1°F16.2°C 98% 5.6 mph W9.0 kmh W 9.8 mph15.8 kmh 29.80 in1009.1 mb 0.00 in0.0 mm 0.00 in0.0 mm 0.00 in0.0 mm
10:00 PM 61.7°F16.5°C 61.1°F16.2°C 98% 5.4 mph WSW8.7 kmh WSW 10.5 mph16.9 kmh 29.80 in1009.1 mb 0.00 in0.0 mm 0.00 in0.0 mm 0.00 in0.0 mm
10:05 PM 61.7°F16.5°C 61.1°F16.2°C 98% 4.7 mph W7.6 kmh W 11.2 mph18.0 kmh 29.80 in1009.1 mb 0.00 in0.0 mm 0.00 in0.0 mm 0.00 in0.0 mm
10:10 PM 61.8°F16.6°C 61.2°F16.2°C 98% 4.7 mph WSW7.6 kmh WSW 9.2 mph14.8 kmh 29.80 in1009.1 mb 0.00 in0.0 mm 0.00 in0.0 mm 0.00 in0.0 mm
10:15 PM 61.8°F16.6°C 61.2°F16.2°C 98% 4.4 mph WSW7.1 kmh WSW 8.3 mph13.4 kmh 29.80 in1009.1 mb 0.00 in0.0 mm 0.00 in0.0 mm 0.00 in0.0 mm
10:20 PM 61.8°F16.6°C 61.2°F16.2°C 98% 5.3 mph WSW8.5 kmh WSW 11.4 mph18.3 kmh 29.80 in1009.1 mb 0.00 in0.0 mm 0.00 in0.0 mm 0.00 in0.0 mm
10:25 PM 61.9°F16.6°C 61.3°F16.3°C 98% 5.1 mph WSW8.2 kmh WSW 10.1 mph16.3 kmh 29.80 in1009.1 mb 0.00 in0.0 mm 0.00 in0.0 mm 0.00 in0.0 mm
10:30 PM 61.9°F16.6°C 61.3°F16.3°C 98% 5.6 mph WSW9.0 kmh WSW 9.4 mph15.1 kmh 29.80 in1009.1 mb 0.00 in0.0 mm 0.00 in0.0 mm 0.00 in0.0 mm
10:35 PM 61.9°F16.6°C 61.3°F16.3°C 98% 4.6 mph W7.4 kmh W 8.1 mph13.0 kmh 29.80 in1009.1 mb 0.00 in0.0 mm 0.00 in0.0 mm 0.00 in0.0 mm
10:40 PM 61.9°F16.6°C 61.3°F16.3°C 98% 5.2 mph WSW8.4 kmh WSW 9.4 mph15.1 kmh 29.80 in1009.1 mb 0.00 in0.0 mm 0.00 in0.0 mm 0.00 in0.0 mm
10:45 PM 61.9°F16.6°C 61.3°F16.3°C 98% 4.8 mph W7.7 kmh W 8.3 mph13.4 kmh 29.80 in1009.1 mb 0.00 in0.0 mm 0.00 in0.0 mm 0.00 in0.0 mm
10:50 PM 61.9°F16.6°C 61.3°F16.3°C 98% 6.2 mph WSW10.0 kmh WSW 11.9 mph19.2 kmh 29.80 in1009.1 mb 0.00 in0.0 mm 0.00 in0.0 mm 0.00 in0.0 mm
10:55 PM 61.9°F16.6°C 61.3°F16.3°C 98% 4.6 mph W7.4 kmh W 9.2 mph14.8 kmh 29.80 in1009.1 mb 0.00 in0.0 mm 0.00 in0.0 mm 0.00 in0.0 mm
11:00 PM 61.9°F16.6°C 61.3°F16.3°C 98% 5.1 mph WSW8.2 kmh WSW 7.6 mph12.2 kmh 29.80 in1009.1 mb 0.00 in0.0 mm 0.00 in0.0 mm 0.00 in0.0 mm
11:05 PM 61.9°F16.6°C 61.3°F16.3°C 98% 4.7 mph WSW7.6 kmh WSW 9.8 mph15.8 kmh 29.80 in1009.1 mb 0.00 in0.0 mm 0.00 in0.0 mm 0.00 in0.0 mm
11:10 PM 61.9°F16.6°C 61.3°F16.3°C 98% 4.5 mph W7.2 kmh W 11.6 mph18.7 kmh 29.80 in1009.1 mb 0.00 in0.0 mm 0.00 in0.0 mm 0.00 in0.0 mm
11:15 PM 61.9°F16.6°C 61.3°F16.3°C 98% 5.0 mph WSW8.0 kmh WSW 10.3 mph16.6 kmh 29.80 in1009.1 mb 0.00 in0.0 mm 0.00 in0.0 mm 0.00 in0.0 mm
11:20 PM 61.9°F16.6°C 61.3°F16.3°C 98% 5.7 mph WSW9.2 kmh WSW 10.7 mph17.2 kmh 29.80 in1009.1 mb 0.00 in0.0 mm 0.00 in0.0 mm 0.00 in0.0 mm
11:25 PM 61.9°F16.6°C 61.3°F16.3°C 98% 5.0 mph W8.0 kmh W 10.1 mph16.3 kmh 29.80 in1009.1 mb 0.00 in0.0 mm 0.00 in0.0 mm 0.00 in0.0 mm
11:30 PM 61.9°F16.6°C 61.3°F16.3°C 98% 5.3 mph WSW8.5 kmh WSW 10.1 mph16.3 kmh 29.80 in1009.1 mb 0.00 in0.0 mm 0.00 in0.0 mm 0.00 in0.0 mm
11:35 PM 61.9°F16.6°C 61.3°F16.3°C 98% 5.9 mph WSW9.5 kmh WSW 11.2 mph18.0 kmh 29.80 in1009.1 mb 0.00 in0.0 mm 0.00 in0.0 mm 0.00 in0.0 mm
11:40 PM 61.9°F16.6°C 61.3°F16.3°C 98% 6.4 mph WSW10.3 kmh WSW 10.7 mph17.2 kmh 29.80 in1009.1 mb 0.00 in0.0 mm 0.00 in0.0 mm 0.00 in0.0 mm
11:45 PM 61.9°F16.6°C 61.3°F16.3°C 98% 6.6 mph WSW10.6 kmh WSW 13.2 mph21.2 kmh 29.80 in1009.1 mb 0.04 in1.0 mm 0.48 in12.2 mm 0.04 in1.0 mm
11:50 PM 61.9°F16.6°C 61.3°F16.3°C 98% 5.1 mph WSW8.2 kmh WSW 8.9 mph14.3 kmh 29.80 in1009.1 mb 0.04 in1.0 mm 0.00 in0.0 mm 0.04 in1.0 mm
11:55 PM 61.9°F16.6°C 61.3°F16.3°C 98% 4.7 mph WSW7.6 kmh WSW 7.4 mph11.9 kmh 29.80 in1009.1 mb 0.04 in1.0 mm 0.00 in0.0 mm 0.04 in1.0 mm